• Join FlightAware (Why Join?)
  • Login
  • US Flag 
03:22AM EST


 

Airport Tracker/Info


-or-


 

Live Flight TrackerFlight Track Log ✈ LOF3359 ✈ 17-Apr-2013 ✈ KIAD - KDAY

Flight Track Log - Related Links

Times and Time Zones

All times are in EDT time to prevent confusion due to time zone crossing. See the LOF3359 flight status page for this flight to view local times or setup timezone preferences in your user account.

Time Position Orientation Groundspeed Altitude Reporting Facility
EDT Latitude Longitude Course Direction KTS MPH feet Rate Location/Type
12:42PM 38.9500 -77.5000 303° West 172 198 1,700  Level Potomac TRACON
12:43PM 38.9333 -77.5667 252° West 226 260 3,100 1,980 Climbing Potomac TRACON
12:44PM 38.9000 -77.6667 247° West 248 285 5,700 2,280 Climbing Potomac TRACON
12:44PM 38.8947 -77.7119 261° West 255 293 6,600 2,640 Climbing Washington Center
12:45PM 38.8717 -77.9316 293° West  Level FlightAware Approximate
12:45PM 38.8869 -77.7972 263° West 270 311 9,500  Level Washington Center
12:46PM 38.9043 -78.0503 288° West  Level FlightAware Approximate
12:46PM 38.8747 -77.8981 261° West 287 330 10,100  Level Washington Center
12:47PM 38.9349 -78.1698 303° West  Level FlightAware Approximate
12:47PM 38.8956 -78.0028 284° West 320 368 10,100  Level Washington Center
12:48PM 38.9325 -78.1267 291° West 341 392 10,200 660 Climbing Washington Center
12:49PM 38.9594 -78.2317 288° West 347 399 11,500 1,500 Climbing Washington Center
12:50PM 38.9647 -78.3681 273° West 347 399 13,200 1,500 Climbing Washington Center
12:51PM 38.9683 -78.4803 272° West 352 405 14,600 1,320 Climbing Washington Center
12:52PM 38.9733 -78.6142 273° West 369 425 15,900 1,320 Climbing Washington Center
12:53PM 38.9783 -78.7453 273° West 369 425 17,300 1,500 Climbing Washington Center
12:54PM 38.9831 -78.8842 273° West 369 425 18,900 1,440 Climbing Washington Center
12:55PM 38.9819 -78.9964 269° West 364 419 20,200 1,500 Climbing Washington Center
12:56PM 38.9839 -79.1433 271° West 369 425 21,900 1,500 Climbing Washington Center
12:57PM 38.9928 -79.2694 275° West 382 440 23,200 1,380 Climbing Washington Center
12:58PM 38.9950 -79.4003 271° West 387 445 24,700 1,440 Climbing Washington Center
12:59PM 38.9969 -79.5314 271° West 387 445 26,100 1,380 Climbing Washington Center
01:00PM 38.9989 -79.6622 271° West 381 438 27,500 900 Climbing Washington Center
01:01PM 39.0022 -79.8067 272° West 371 427 28,000 120 Climbing Washington Center
01:03PM 39.0042 -80.0808 271° West 408 470 28,000  Level Indianapolis Center
01:04PM 39.0064 -80.2572 271° West 420 483 28,000  Level Indianapolis Center
01:06PM 39.0086 -80.4058 271° West 419 482 28,000  Level Indianapolis Center
01:07PM 39.0108 -80.5556 271° West 419 482 28,000  Level Indianapolis Center
01:08PM 39.0658 -80.6842 299° West 419 482 28,000  Level Indianapolis Center
01:09PM 39.1347 -80.8042 307° West 419 482 28,000  Level Indianapolis Center
01:10PM 39.2064 -80.9239 308° West 425 489 28,000  Level Indianapolis Center
01:11PM 39.2911 -81.0694 307° West 425 489 28,000  Level Indianapolis Center
01:12PM 39.3625 -81.1922 307° West 430 495 28,000  Level Indianapolis Center
01:13PM 39.4336 -81.3156 307° West 430 495 28,000  Level Indianapolis Center
01:14PM 39.5019 -81.4353 307° West 418 481 28,000  Level Indianapolis Center
01:15PM 39.5672 -81.5506 306° West 403 464 28,000  Level Indianapolis Center
01:16PM 39.6322 -81.6631 307° West 393 452 28,000  Level Indianapolis Center
01:17PM 39.7089 -81.8000 306° West 392 451 28,000  Level Indianapolis Center
01:18PM 39.7681 -81.9019 307° West 401 461 28,000  Level Indianapolis Center
01:19PM 39.8478 -82.0450 306° West 414 476 28,000  Level Indianapolis Center
01:20PM 39.9189 -82.1694 307° West 423 487 28,000 -780 Level Indianapolis Center
01:21PM 39.9889 -82.2956 306° West 426 490 26,500 -1,500 Descending Indianapolis Center
01:22PM 40.0583 -82.4197 306° West 422 486 25,000 -1,560 Descending Indianapolis Center
01:23PM 40.1269 -82.5436 306° West 419 482 23,400 -1,740 Descending Indianapolis Center
01:24PM 40.1556 -82.6806 285° West 396 456 21,500 -1,920 Descending Indianapolis Center
01:25PM 40.1639 -82.8181 275° West 382 440 19,500 -1,860 Descending Indianapolis Center
01:26PM 40.1703 -82.9553 274° West 377 434 17,700 -2,040 Descending Indianapolis Center
01:27PM 40.1786 -83.1169 274° West 381 438 15,400 -2,160 Descending Indianapolis Center
01:28PM 40.1847 -83.2483 274° West 366 421 13,300 -1,980 Descending Indianapolis Center
01:29PM 40.1906 -83.3725 274° West 346 398 11,400 -1,500 Descending Indianapolis Center
01:30PM 40.1939 -83.4397 274° West 338 389 11,000 -360 Descending Indianapolis Center
01:30PM 40.1969 -83.5139 273° West 336 387 11,000 -300 Level Indianapolis Center
01:31PM 40.1944 -83.6197 268° West 344 396 10,600 -600 Descending Indianapolis Center
01:32PM 40.1842 -83.7481 264° West 353 406 9,900 -360 Descending Indianapolis Center
01:33PM 40.1767 -83.8703 265° West 340 391 9,900  Level Indianapolis Center
01:34PM 40.1442 -83.9958 251° West 286 329 9,900 -960 Level Indianapolis Center
01:35PM 40.1047 -84.0722 236° Southwest 274 315 8,000 -1,860 Descending Indianapolis Center
01:36PM 40.0631 -84.1500 235° Southwest 267 307 6,200 -1,020 Descending Indianapolis Center
01:37PM 40.0250 -84.2281 238° Southwest 260 299 5,900 -180 Descending Indianapolis Center
01:38PM 39.9867 -84.3053 237° Southwest 255 293 5,900 -840 Level Indianapolis Center
01:39PM 39.9458 -84.3867 237° Southwest 251 289 4,300 -960 Descending Indianapolis Center
01:40PM 39.9103 -84.4636 239° Southwest 242 278 4,000 -480 Descending Indianapolis Center
01:41PM 39.8583 -84.5083 213° Southwest 236 272 3,400 -540 Descending Indianapolis Center
01:42PM 39.8100 -84.4581 141° Southeast 212 244 3,000 -240 Descending Indianapolis Center
01:44PM 39.8244 -84.3783 77° East 221 254 2,900 -300 Descending Indianapolis Center
01:45PM 39.8550 -84.3206 55° Northeast 204 235 2,400 -600 Descending Indianapolis Center
01:45PM 39.8719 -84.2869 57° Northeast 129 148 1,800 -780 Descending Indianapolis Center